sensor_id;sensor_type;location;lat;lon;timestamp;temperature;humidity
19947;DHT22;10135;50.702;7.276;2023-04-06T05:01:25;6.30;41.40
19947;DHT22;10135;50.702;7.276;2023-04-06T05:03:26;6.30;41.50
19947;DHT22;10135;50.702;7.276;2023-04-06T05:05:27;6.30;41.60
19947;DHT22;10135;50.702;7.276;2023-04-06T05:07:27;6.30;41.60
19947;DHT22;10135;50.702;7.276;2023-04-06T05:09:29;6.30;41.70
19947;DHT22;10135;50.702;7.276;2023-04-06T05:11:31;6.30;41.70
19947;DHT22;10135;50.702;7.276;2023-04-06T05:13:31;6.30;41.70
19947;DHT22;10135;50.702;7.276;2023-04-06T05:15:32;6.30;41.80
19947;DHT22;10135;50.702;7.276;2023-04-06T05:17:38;6.30;41.80
19947;DHT22;10135;50.702;7.276;2023-04-06T05:19:39;6.30;41.80
19947;DHT22;10135;50.702;7.276;2023-04-06T05:21:39;6.30;41.80
19947;DHT22;10135;50.702;7.276;2023-04-06T05:23:40;6.30;41.80
19947;DHT22;10135;50.702;7.276;2023-04-06T05:25:40;6.30;41.90
19947;DHT22;10135;50.702;7.276;2023-04-06T05:27:41;6.30;41.90
19947;DHT22;10135;50.702;7.276;2023-04-06T05:29:42;6.40;42.00
19947;DHT22;10135;50.702;7.276;2023-04-06T05:31:42;6.40;42.00
19947;DHT22;10135;50.702;7.276;2023-04-06T05:33:43;6.40;42.00
19947;DHT22;10135;50.702;7.276;2023-04-06T05:35:44;6.50;42.10
19947;DHT22;10135;50.702;7.276;2023-04-06T05:37:45;6.50;42.10
19947;DHT22;10135;50.702;7.276;2023-04-06T05:39:46;6.50;42.10
19947;DHT22;10135;50.702;7.276;2023-04-06T05:41:46;6.50;42.10
19947;DHT22;10135;50.702;7.276;2023-04-06T05:43:47;6.50;42.20
19947;DHT22;10135;50.702;7.276;2023-04-06T05:45:47;6.60;42.30
19947;DHT22;10135;50.702;7.276;2023-04-06T05:47:48;6.60;42.20
19947;DHT22;10135;50.702;7.276;2023-04-06T05:49:49;6.70;42.20
19947;DHT22;10135;50.702;7.276;2023-04-06T05:51:49;6.70;42.20
19947;DHT22;10135;50.702;7.276;2023-04-06T05:53:50;6.80;42.40
19947;DHT22;10135;50.702;7.276;2023-04-06T05:55:51;6.80;42.20
19947;DHT22;10135;50.702;7.276;2023-04-06T05:57:51;6.90;42.40
19947;DHT22;10135;50.702;7.276;2023-04-06T05:59:52;6.90;42.40
19947;DHT22;10135;50.702;7.276;2023-04-06T06:01:52;7.00;42.40
19947;DHT22;10135;50.702;7.276;2023-04-06T06:03:53;7.10;42.50
19947;DHT22;10135;50.702;7.276;2023-04-06T06:05:54;7.20;42.50
19947;DHT22;10135;50.702;7.276;2023-04-06T06:08:00;7.30;42.70
19947;DHT22;10135;50.702;7.276;2023-04-06T06:10:02;7.50;43.00
19947;DHT22;10135;50.702;7.276;2023-04-06T06:12:03;7.80;43.30
19947;DHT22;10135;50.702;7.276;2023-04-06T06:14:04;8.20;43.70
19947;DHT22;10135;50.702;7.276;2023-04-06T06:16:05;8.60;43.90
19947;DHT22;10135;50.702;7.276;2023-04-06T06:18:06;9.10;44.00
19947;DHT22;10135;50.702;7.276;2023-04-06T06:20:07;9.60;44.10
19947;DHT22;10135;50.702;7.276;2023-04-06T06:22:08;10.10;44.00
19947;DHT22;10135;50.702;7.276;2023-04-06T06:24:09;10.70;44.00
19947;DHT22;10135;50.702;7.276;2023-04-06T06:26:10;11.20;43.90
19947;DHT22;10135;50.702;7.276;2023-04-06T06:28:11;11.70;43.70
19947;DHT22;10135;50.702;7.276;2023-04-06T06:30:12;12.30;43.60
19947;DHT22;10135;50.702;7.276;2023-04-06T06:32:13;12.80;43.40
19947;DHT22;10135;50.702;7.276;2023-04-06T06:34:14;13.20;43.00
19947;DHT22;10135;50.702;7.276;2023-04-06T06:36:16;13.70;42.70
19947;DHT22;10135;50.702;7.276;2023-04-06T06:38:17;14.00;42.30
19947;DHT22;10135;50.702;7.276;2023-04-06T06:40:18;14.40;41.90
19947;DHT22;10135;50.702;7.276;2023-04-06T06:42:20;14.60;41.60
19947;DHT22;10135;50.702;7.276;2023-04-06T06:44:20;14.90;41.30
19947;DHT22;10135;50.702;7.276;2023-04-06T06:46:21;15.10;41.10
19947;DHT22;10135;50.702;7.276;2023-04-06T06:48:22;15.20;40.70
19947;DHT22;10135;50.702;7.276;2023-04-06T06:50:23;15.30;40.60
19947;DHT22;10135;50.702;7.276;2023-04-06T06:52:23;15.40;40.50
19947;DHT22;10135;50.702;7.276;2023-04-06T06:54:24;15.60;40.30
19947;DHT22;10135;50.702;7.276;2023-04-06T06:56:25;15.60;40.10
19947;DHT22;10135;50.702;7.276;2023-04-06T06:58:27;15.70;40.00
19947;DHT22;10135;50.702;7.276;2023-04-06T07:00:27;15.70;39.80
19947;DHT22;10135;50.702;7.276;2023-04-06T07:02:28;15.70;39.70
19947;DHT22;10135;50.702;7.276;2023-04-06T07:04:28;15.60;39.50
19947;DHT22;10135;50.702;7.276;2023-04-06T07:06:29;15.60;39.30
19947;DHT22;10135;50.702;7.276;2023-04-06T07:08:30;15.40;39.20
19947;DHT22;10135;50.702;7.276;2023-04-06T07:10:30;15.30;39.20
19947;DHT22;10135;50.702;7.276;2023-04-06T07:12:31;15.20;39.10
19947;DHT22;10135;50.702;7.276;2023-04-06T07:14:32;15.00;39.20
19947;DHT22;10135;50.702;7.276;2023-04-06T07:16:32;14.90;39.20
19947;DHT22;10135;50.702;7.276;2023-04-06T07:18:33;14.90;39.50
19947;DHT22;10135;50.702;7.276;2023-04-06T07:20:34;14.90;39.60
19947;DHT22;10135;50.702;7.276;2023-04-06T07:22:34;15.00;39.80
19947;DHT22;10135;50.702;7.276;2023-04-06T07:24:35;15.10;40.00
19947;DHT22;10135;50.702;7.276;2023-04-06T07:26:36;15.20;40.00
19947;DHT22;10135;50.702;7.276;2023-04-06T07:28:37;15.30;39.90
19947;DHT22;10135;50.702;7.276;2023-04-06T07:30:38;15.40;39.70
19947;DHT22;10135;50.702;7.276;2023-04-06T07:32:39;15.40;39.60
19947;DHT22;10135;50.702;7.276;2023-04-06T07:34:40;15.40;39.50
19947;DHT22;10135;50.702;7.276;2023-04-06T07:36:40;15.40;39.60
19947;DHT22;10135;50.702;7.276;2023-04-06T07:38:41;15.50;39.70
19947;DHT22;10135;50.702;7.276;2023-04-06T07:40:42;15.60;39.80
19947;DHT22;10135;50.702;7.276;2023-04-06T07:42:42;15.70;39.70
19947;DHT22;10135;50.702;7.276;2023-04-06T07:44:43;15.80;39.60
19947;DHT22;10135;50.702;7.276;2023-04-06T07:46:44;15.80;39.60
19947;DHT22;10135;50.702;7.276;2023-04-06T07:48:44;15.90;39.60
19947;DHT22;10135;50.702;7.276;2023-04-06T07:50:45;16.00;39.70
19947;DHT22;10135;50.702;7.276;2023-04-06T07:52:45;16.10;39.80
19947;DHT22;10135;50.702;7.276;2023-04-06T07:54:46;16.30;39.80
19947;DHT22;10135;50.702;7.276;2023-04-06T07:56:48;16.50;39.80
19947;DHT22;10135;50.702;7.276;2023-04-06T07:58:49;16.60;39.60
19947;DHT22;10135;50.702;7.276;2023-04-06T08:00:49;16.80;39.40
19947;DHT22;10135;50.702;7.276;2023-04-06T08:02:50;16.80;39.10
19947;DHT22;10135;50.702;7.276;2023-04-06T08:04:51;16.80;38.90
19947;DHT22;10135;50.702;7.276;2023-04-06T08:06:52;16.80;38.80
19947;DHT22;10135;50.702;7.276;2023-04-06T08:08:52;16.80;38.80
19947;DHT22;10135;50.702;7.276;2023-04-06T08:10:53;16.90;39.00
19947;DHT22;10135;50.702;7.276;2023-04-06T08:12:53;17.10;39.10
19947;DHT22;10135;50.702;7.276;2023-04-06T08:14:54;17.20;39.00
19947;DHT22;10135;50.702;7.276;2023-04-06T08:16:55;17.30;38.90
19947;DHT22;10135;50.702;7.276;2023-04-06T08:18:56;17.40;38.90
19947;DHT22;10135;50.702;7.276;2023-04-06T08:20:56;17.30;38.50
19947;DHT22;10135;50.702;7.276;2023-04-06T08:22:57;17.30;38.50
19947;DHT22;10135;50.702;7.276;2023-04-06T08:24:57;17.30;38.40
19947;DHT22;10135;50.702;7.276;2023-04-06T08:26:58;17.30;38.40
19947;DHT22;10135;50.702;7.276;2023-04-06T08:28:59;17.30;38.40
19947;DHT22;10135;50.702;7.276;2023-04-06T08:31:05;17.30;38.20
19947;DHT22;10135;50.702;7.276;2023-04-06T08:33:06;17.30;37.90
19947;DHT22;10135;50.702;7.276;2023-04-06T08:35:07;17.20;37.90
19947;DHT22;10135;50.702;7.276;2023-04-06T08:37:09;17.10;37.80
19947;DHT22;10135;50.702;7.276;2023-04-06T08:39:09;17.10;37.90
19947;DHT22;10135;50.702;7.276;2023-04-06T08:41:11;17.00;38.50
19947;DHT22;10135;50.702;7.276;2023-04-06T08:43:14;16.90;38.00
19947;DHT22;10135;50.702;7.276;2023-04-06T08:45:16;16.90;38.10
19947;DHT22;10135;50.702;7.276;2023-04-06T08:47:16;16.90;38.10
19947;DHT22;10135;50.702;7.276;2023-04-06T08:49:17;17.00;38.20
19947;DHT22;10135;50.702;7.276;2023-04-06T08:51:19;17.00;38.20
19947;DHT22;10135;50.702;7.276;2023-04-06T08:53:20;17.10;38.30
19947;DHT22;10135;50.702;7.276;2023-04-06T08:55:21;17.20;38.40
19947;DHT22;10135;50.702;7.276;2023-04-06T08:57:23;17.30;38.40
19947;DHT22;10135;50.702;7.276;2023-04-06T08:59:25;17.40;38.30
19947;DHT22;10135;50.702;7.276;2023-04-06T09:01:27;17.50;38.20
19947;DHT22;10135;50.702;7.276;2023-04-06T09:03:30;17.50;38.10
19947;DHT22;10135;50.702;7.276;2023-04-06T09:05:32;17.60;38.00
19947;DHT22;10135;50.702;7.276;2023-04-06T09:07:32;17.70;37.90
19947;DHT22;10135;50.702;7.276;2023-04-06T09:09:33;17.70;37.90
19947;DHT22;10135;50.702;7.276;2023-04-06T09:11:47;17.70;37.70
19947;DHT22;10135;50.702;7.276;2023-04-06T09:13:51;17.70;37.40
19947;DHT22;10135;50.702;7.276;2023-04-06T09:16:03;17.60;37.60
19947;DHT22;10135;50.702;7.276;2023-04-06T09:18:06;17.50;37.40
19947;DHT22;10135;50.702;7.276;2023-04-06T09:20:08;17.40;37.50
19947;DHT22;10135;50.702;7.276;2023-04-06T09:22:09;17.40;37.40
19947;DHT22;10135;50.702;7.276;2023-04-06T09:24:09;17.30;37.40
19947;DHT22;10135;50.702;7.276;2023-04-06T09:26:15;17.20;37.50
19947;DHT22;10135;50.702;7.276;2023-04-06T09:28:17;17.20;37.50
19947;DHT22;10135;50.702;7.276;2023-04-06T09:30:18;17.10;37.60
19947;DHT22;10135;50.702;7.276;2023-04-06T09:32:19;17.10;37.70
19947;DHT22;10135;50.702;7.276;2023-04-06T09:34:22;17.10;37.70
19947;DHT22;10135;50.702;7.276;2023-04-06T09:36:34;17.10;37.70
19947;DHT22;10135;50.702;7.276;2023-04-06T09:38:55;17.10;37.40
19947;DHT22;10135;50.702;7.276;2023-04-06T09:40:56;17.00;37.50
19947;DHT22;10135;50.702;7.276;2023-04-06T09:42:57;17.00;37.70
19947;DHT22;10135;50.702;7.276;2023-04-06T09:44:59;17.10;37.80
19947;DHT22;10135;50.702;7.276;2023-04-06T09:47:00;17.10;37.80
19947;DHT22;10135;50.702;7.276;2023-04-06T09:49:07;17.10;37.80
19947;DHT22;10135;50.702;7.276;2023-04-06T09:51:10;17.10;37.80
19947;DHT22;10135;50.702;7.276;2023-04-06T09:53:14;17.20;37.80
19947;DHT22;10135;50.702;7.276;2023-04-06T09:55:26;17.20;37.80
19947;DHT22;10135;50.702;7.276;2023-04-06T09:57:35;17.20;37.40
19947;DHT22;10135;50.702;7.276;2023-04-06T10:00:02;17.30;37.50
19947;DHT22;10135;50.702;7.276;2023-04-06T10:02:30;17.30;37.30
19947;DHT22;10135;50.702;7.276;2023-04-06T10:07:23;17.20;37.30
19947;DHT22;10135;50.702;7.276;2023-04-06T10:09:25;17.10;37.50
19947;DHT22;10135;50.702;7.276;2023-04-06T10:11:35;17.10;37.50
19947;DHT22;10135;50.702;7.276;2023-04-06T10:13:36;17.10;37.50
19947;DHT22;10135;50.702;7.276;2023-04-06T10:15:41;17.10;37.50
19947;DHT22;10135;50.702;7.276;2023-04-06T10:17:43;17.10;37.40
19947;DHT22;10135;50.702;7.276;2023-04-06T10:19:52;17.10;37.50
19947;DHT22;10135;50.702;7.276;2023-04-06T10:21:57;17.10;37.40
19947;DHT22;10135;50.702;7.276;2023-04-06T10:24:01;17.20;37.60
19947;DHT22;10135;50.702;7.276;2023-04-06T10:26:03;17.20;37.60
19947;DHT22;10135;50.702;7.276;2023-04-06T10:28:10;17.30;37.60
19947;DHT22;10135;50.702;7.276;2023-04-06T10:30:15;17.40;37.50
19947;DHT22;10135;50.702;7.276;2023-04-06T10:32:17;17.40;37.30
19947;DHT22;10135;50.702;7.276;2023-04-06T10:34:17;17.50;37.40
19947;DHT22;10135;50.702;7.276;2023-04-06T10:36:24;17.50;37.40
19947;DHT22;10135;50.702;7.276;2023-04-06T10:38:33;17.50;37.20
19947;DHT22;10135;50.702;7.276;2023-04-06T10:40:37;17.50;37.10
19947;DHT22;10135;50.702;7.276;2023-04-06T10:42:38;17.50;37.20
19947;DHT22;10135;50.702;7.276;2023-04-06T10:44:43;17.40;37.20
19947;DHT22;10135;50.702;7.276;2023-04-06T10:46:55;17.40;37.10
19947;DHT22;10135;50.702;7.276;2023-04-06T10:49:11;17.40;37.10
19947;DHT22;10135;50.702;7.276;2023-04-06T10:51:14;17.40;36.80
19947;DHT22;10135;50.702;7.276;2023-04-06T10:53:26;17.40;37.00
19947;DHT22;10135;50.702;7.276;2023-04-06T10:55:29;17.40;36.90
19947;DHT22;10135;50.702;7.276;2023-04-06T10:57:31;17.50;37.10
19947;DHT22;10135;50.702;7.276;2023-04-06T10:59:33;17.50;37.10
19947;DHT22;10135;50.702;7.276;2023-04-06T11:01:34;17.60;37.00
19947;DHT22;10135;50.702;7.276;2023-04-06T11:03:43;17.60;37.00
19947;DHT22;10135;50.702;7.276;2023-04-06T11:05:49;17.60;36.70
19947;DHT22;10135;50.702;7.276;2023-04-06T11:07:51;17.70;37.00
19947;DHT22;10135;50.702;7.276;2023-04-06T11:09:51;17.70;36.90
19947;DHT22;10135;50.702;7.276;2023-04-06T11:11:52;17.70;36.70
19947;DHT22;10135;50.702;7.276;2023-04-06T11:13:55;17.70;36.70
19947;DHT22;10135;50.702;7.276;2023-04-06T11:15:58;17.70;36.50
19947;DHT22;10135;50.702;7.276;2023-04-06T11:18:03;17.70;36.50
19947;DHT22;10135;50.702;7.276;2023-04-06T11:20:10;17.70;36.20
19947;DHT22;10135;50.702;7.276;2023-04-06T11:22:11;17.70;36.20
19947;DHT22;10135;50.702;7.276;2023-04-06T11:24:22;17.70;36.40
19947;DHT22;10135;50.702;7.276;2023-04-06T11:26:24;17.60;36.00
19947;DHT22;10135;50.702;7.276;2023-04-06T11:28:25;17.60;36.20
19947;DHT22;10135;50.702;7.276;2023-04-06T11:30:26;17.50;36.30
19947;DHT22;10135;50.702;7.276;2023-04-06T11:32:27;17.50;36.30
19947;DHT22;10135;50.702;7.276;2023-04-06T11:34:29;17.50;36.30
19947;DHT22;10135;50.702;7.276;2023-04-06T11:36:30;17.50;36.30
19947;DHT22;10135;50.702;7.276;2023-04-06T11:38:31;17.50;36.30
19947;DHT22;10135;50.702;7.276;2023-04-06T11:40:32;17.50;36.20
19947;DHT22;10135;50.702;7.276;2023-04-06T11:42:34;17.40;36.20
19947;DHT22;10135;50.702;7.276;2023-04-06T11:44:36;17.50;36.10
19947;DHT22;10135;50.702;7.276;2023-04-06T11:46:52;17.40;36.20
19947;DHT22;10135;50.702;7.276;2023-04-06T11:49:01;17.40;35.90
19947;DHT22;10135;50.702;7.276;2023-04-06T11:51:02;17.40;36.10
19947;DHT22;10135;50.702;7.276;2023-04-06T11:53:05;17.40;36.30
19947;DHT22;10135;50.702;7.276;2023-04-06T11:55:16;17.40;36.20
19947;DHT22;10135;50.702;7.276;2023-04-06T11:57:20;17.40;36.00
19947;DHT22;10135;50.702;7.276;2023-04-06T11:59:24;17.30;36.20
19947;DHT22;10135;50.702;7.276;2023-04-06T12:01:26;17.30;36.20
19947;DHT22;10135;50.702;7.276;2023-04-06T12:03:26;17.40;36.20
19947;DHT22;10135;50.702;7.276;2023-04-06T12:05:27;17.30;36.20
19947;DHT22;10135;50.702;7.276;2023-04-06T12:07:29;17.30;36.10
19947;DHT22;10135;50.702;7.276;2023-04-06T12:09:31;17.30;36.10
19947;DHT22;10135;50.702;7.276;2023-04-06T12:11:32;17.30;36.20
19947;DHT22;10135;50.702;7.276;2023-04-06T12:13:32;17.30;36.20
19947;DHT22;10135;50.702;7.276;2023-04-06T12:15:33;17.30;36.20
19947;DHT22;10135;50.702;7.276;2023-04-06T12:17:34;17.40;36.20
19947;DHT22;10135;50.702;7.276;2023-04-06T12:19:35;17.40;36.20
19947;DHT22;10135;50.702;7.276;2023-04-06T12:21:35;17.40;36.20
19947;DHT22;10135;50.702;7.276;2023-04-06T12:23:37;17.40;36.20
19947;DHT22;10135;50.702;7.276;2023-04-06T12:25:40;17.50;36.10
19947;DHT22;10135;50.702;7.276;2023-04-06T12:27:41;17.40;36.00
19947;DHT22;10135;50.702;7.276;2023-04-06T12:29:42;17.50;36.00
19947;DHT22;10135;50.702;7.276;2023-04-06T12:31:42;17.50;36.00
19947;DHT22;10135;50.702;7.276;2023-04-06T12:33:49;17.50;36.00
19947;DHT22;10135;50.702;7.276;2023-04-06T12:35:50;17.50;35.90
19947;DHT22;10135;50.702;7.276;2023-04-06T12:37:51;17.50;35.90
19947;DHT22;10135;50.702;7.276;2023-04-06T12:39:52;17.50;35.90
19947;DHT22;10135;50.702;7.276;2023-04-06T12:41:53;17.50;35.90
19947;DHT22;10135;50.702;7.276;2023-04-06T12:43:53;17.40;35.80
19947;DHT22;10135;50.702;7.276;2023-04-06T12:45:54;17.40;35.90
19947;DHT22;10135;50.702;7.276;2023-04-06T12:47:57;17.40;35.80
19947;DHT22;10135;50.702;7.276;2023-04-06T12:49:58;17.40;35.80
19947;DHT22;10135;50.702;7.276;2023-04-06T12:51:59;17.40;35.70
19947;DHT22;10135;50.702;7.276;2023-04-06T12:53:59;17.40;35.70
19947;DHT22;10135;50.702;7.276;2023-04-06T12:56:01;17.30;35.70
19947;DHT22;10135;50.702;7.276;2023-04-06T12:58:02;17.30;35.80
19947;DHT22;10135;50.702;7.276;2023-04-06T13:00:04;17.30;35.90
19947;DHT22;10135;50.702;7.276;2023-04-06T13:02:05;17.30;35.90
19947;DHT22;10135;50.702;7.276;2023-04-06T13:04:06;17.30;35.90
19947;DHT22;10135;50.702;7.276;2023-04-06T13:06:07;17.30;35.80
19947;DHT22;10135;50.702;7.276;2023-04-06T13:08:08;17.30;35.80
19947;DHT22;10135;50.702;7.276;2023-04-06T13:10:09;17.30;35.80
19947;DHT22;10135;50.702;7.276;2023-04-06T13:12:10;17.30;35.70
19947;DHT22;10135;50.702;7.276;2023-04-06T13:14:10;17.30;35.70
19947;DHT22;10135;50.702;7.276;2023-04-06T13:16:11;17.30;35.70
19947;DHT22;10135;50.702;7.276;2023-04-06T13:18:12;17.30;35.70
19947;DHT22;10135;50.702;7.276;2023-04-06T13:20:12;17.20;35.70
19947;DHT22;10135;50.702;7.276;2023-04-06T13:22:13;17.20;35.70
19947;DHT22;10135;50.702;7.276;2023-04-06T13:24:14;17.10;35.60
19947;DHT22;10135;50.702;7.276;2023-04-06T13:26:15;17.10;35.70
19947;DHT22;10135;50.702;7.276;2023-04-06T13:28:16;17.10;35.80
19947;DHT22;10135;50.702;7.276;2023-04-06T13:30:17;17.00;35.80
19947;DHT22;10135;50.702;7.276;2023-04-06T13:32:18;17.00;35.80
19947;DHT22;10135;50.702;7.276;2023-04-06T13:34:18;17.00;35.80
19947;DHT22;10135;50.702;7.276;2023-04-06T13:36:19;16.90;35.80
19947;DHT22;10135;50.702;7.276;2023-04-06T13:38:20;16.90;35.90
19947;DHT22;10135;50.702;7.276;2023-04-06T13:40:21;16.80;35.90
19947;DHT22;10135;50.702;7.276;2023-04-06T13:42:21;16.80;35.90
19947;DHT22;10135;50.702;7.276;2023-04-06T13:44:22;16.70;35.90
19947;DHT22;10135;50.702;7.276;2023-04-06T13:46:23;16.70;35.90
19947;DHT22;10135;50.702;7.276;2023-04-06T13:48:24;16.70;36.00
19947;DHT22;10135;50.702;7.276;2023-04-06T13:50:26;16.60;36.00
19947;DHT22;10135;50.702;7.276;2023-04-06T13:52:27;16.60;36.00
19947;DHT22;10135;50.702;7.276;2023-04-06T13:54:28;16.60;36.00
19947;DHT22;10135;50.702;7.276;2023-04-06T13:56:28;16.50;36.10
19947;DHT22;10135;50.702;7.276;2023-04-06T13:58:29;16.40;36.00
19947;DHT22;10135;50.702;7.276;2023-04-06T14:00:30;16.50;36.10
19947;DHT22;10135;50.702;7.276;2023-04-06T14:02:31;16.40;36.10
19947;DHT22;10135;50.702;7.276;2023-04-06T14:04:32;16.40;36.10
19947;DHT22;10135;50.702;7.276;2023-04-06T14:06:34;16.30;36.10
19947;DHT22;10135;50.702;7.276;2023-04-06T14:08:34;16.30;36.10
19947;DHT22;10135;50.702;7.276;2023-04-06T14:10:39;16.20;36.70
19947;DHT22;10135;50.702;7.276;2023-04-06T14:12:43;16.20;36.10
19947;DHT22;10135;50.702;7.276;2023-04-06T14:14:44;16.20;36.10
19947;DHT22;10135;50.702;7.276;2023-04-06T14:16:45;16.10;36.10
19947;DHT22;10135;50.702;7.276;2023-04-06T14:18:46;16.10;36.10
19947;DHT22;10135;50.702;7.276;2023-04-06T14:20:53;16.10;36.10
19947;DHT22;10135;50.702;7.276;2023-04-06T14:23:00;16.00;36.10
19947;DHT22;10135;50.702;7.276;2023-04-06T14:25:01;16.00;36.20
19947;DHT22;10135;50.702;7.276;2023-04-06T14:27:02;15.90;36.20
19947;DHT22;10135;50.702;7.276;2023-04-06T14:29:04;15.90;36.20
19947;DHT22;10135;50.702;7.276;2023-04-06T14:31:13;15.80;36.20
19947;DHT22;10135;50.702;7.276;2023-04-06T14:33:15;15.80;36.40
19947;DHT22;10135;50.702;7.276;2023-04-06T14:35:16;15.80;36.40
19947;DHT22;10135;50.702;7.276;2023-04-06T14:37:16;15.70;36.50
19947;DHT22;10135;50.702;7.276;2023-04-06T14:39:17;15.70;36.60
19947;DHT22;10135;50.702;7.276;2023-04-06T14:41:19;15.70;36.60
19947;DHT22;10135;50.702;7.276;2023-04-06T14:43:21;15.60;36.70
19947;DHT22;10135;50.702;7.276;2023-04-06T14:45:22;15.60;36.70
19947;DHT22;10135;50.702;7.276;2023-04-06T14:47:22;15.60;36.80
19947;DHT22;10135;50.702;7.276;2023-04-06T14:49:23;15.50;36.90
19947;DHT22;10135;50.702;7.276;2023-04-06T14:51:25;15.50;37.00
19947;DHT22;10135;50.702;7.276;2023-04-06T14:53:27;15.50;37.10
19947;DHT22;10135;50.702;7.276;2023-04-06T14:55:29;15.50;37.20
19947;DHT22;10135;50.702;7.276;2023-04-06T14:57:30;15.50;37.30
19947;DHT22;10135;50.702;7.276;2023-04-06T14:59:31;15.40;37.30
19947;DHT22;10135;50.702;7.276;2023-04-06T15:01:36;15.40;37.40
19947;DHT22;10135;50.702;7.276;2023-04-06T15:03:37;15.40;37.70
19947;DHT22;10135;50.702;7.276;2023-04-06T15:05:38;15.40;37.50
19947;DHT22;10135;50.702;7.276;2023-04-06T15:07:38;15.30;37.50
19947;DHT22;10135;50.702;7.276;2023-04-06T15:09:39;15.30;37.60
19947;DHT22;10135;50.702;7.276;2023-04-06T15:11:40;15.20;37.70
19947;DHT22;10135;50.702;7.276;2023-04-06T15:13:40;15.20;37.70
19947;DHT22;10135;50.702;7.276;2023-04-06T15:15:42;15.20;37.90
19947;DHT22;10135;50.702;7.276;2023-04-06T15:17:43;15.10;38.00
19947;DHT22;10135;50.702;7.276;2023-04-06T15:19:43;15.00;38.10
19947;DHT22;10135;50.702;7.276;2023-04-06T15:21:44;14.90;38.20
19947;DHT22;10135;50.702;7.276;2023-04-06T15:23:45;14.90;38.20
19947;DHT22;10135;50.702;7.276;2023-04-06T15:25:46;14.80;38.30
19947;DHT22;10135;50.702;7.276;2023-04-06T15:27:47;14.70;38.50
19947;DHT22;10135;50.702;7.276;2023-04-06T15:29:48;14.70;38.50
19947;DHT22;10135;50.702;7.276;2023-04-06T15:31:48;14.70;38.60
19947;DHT22;10135;50.702;7.276;2023-04-06T15:33:49;14.60;38.70
19947;DHT22;10135;50.702;7.276;2023-04-06T15:35:50;14.60;38.80
19947;DHT22;10135;50.702;7.276;2023-04-06T15:37:51;14.60;38.80
19947;DHT22;10135;50.702;7.276;2023-04-06T15:39:52;14.50;38.80
19947;DHT22;10135;50.702;7.276;2023-04-06T15:41:53;14.50;38.90
19947;DHT22;10135;50.702;7.276;2023-04-06T15:43:54;14.50;39.00
19947;DHT22;10135;50.702;7.276;2023-04-06T15:45:55;14.40;39.00
19947;DHT22;10135;50.702;7.276;2023-04-06T15:47:56;14.40;39.10
19947;DHT22;10135;50.702;7.276;2023-04-06T15:49:57;14.30;39.10
19947;DHT22;10135;50.702;7.276;2023-04-06T15:51:57;14.30;39.30
19947;DHT22;10135;50.702;7.276;2023-04-06T15:53:58;14.30;39.50
19947;DHT22;10135;50.702;7.276;2023-04-06T15:56:03;14.20;39.60
19947;DHT22;10135;50.702;7.276;2023-04-06T15:58:06;14.20;39.70
19947;DHT22;10135;50.702;7.276;2023-04-06T16:00:07;14.10;39.70
19947;DHT22;10135;50.702;7.276;2023-04-06T16:02:09;14.10;39.90
19947;DHT22;10135;50.702;7.276;2023-04-06T16:04:09;14.00;40.00
19947;DHT22;10135;50.702;7.276;2023-04-06T16:06:11;14.00;40.10
19947;DHT22;10135;50.702;7.276;2023-04-06T16:08:12;14.00;40.20
19947;DHT22;10135;50.702;7.276;2023-04-06T16:10:16;13.90;40.30
19947;DHT22;10135;50.702;7.276;2023-04-06T16:12:17;13.90;40.40
19947;DHT22;10135;50.702;7.276;2023-04-06T16:14:18;13.80;40.60
19947;DHT22;10135;50.702;7.276;2023-04-06T16:16:19;13.80;40.80
19947;DHT22;10135;50.702;7.276;2023-04-06T16:18:20;13.80;40.80
19947;DHT22;10135;50.702;7.276;2023-04-06T16:20:21;13.70;40.90
19947;DHT22;10135;50.702;7.276;2023-04-06T16:22:21;13.60;41.10
19947;DHT22;10135;50.702;7.276;2023-04-06T16:24:22;13.60;41.20
19947;DHT22;10135;50.702;7.276;2023-04-06T16:26:23;13.60;41.40
19947;DHT22;10135;50.702;7.276;2023-04-06T16:28:23;13.50;41.40
19947;DHT22;10135;50.702;7.276;2023-04-06T16:30:24;13.50;41.50
19947;DHT22;10135;50.702;7.276;2023-04-06T16:32:25;13.40;41.60
19947;DHT22;10135;50.702;7.276;2023-04-06T16:34:30;13.40;41.70
19947;DHT22;10135;50.702;7.276;2023-04-06T16:36:32;13.30;42.20
19947;DHT22;10135;50.702;7.276;2023-04-06T16:38:33;13.20;41.80
19947;DHT22;10135;50.702;7.276;2023-04-06T16:40:34;13.20;41.90
19947;DHT22;10135;50.702;7.276;2023-04-06T16:42:35;13.10;42.00
19947;DHT22;10135;50.702;7.276;2023-04-06T16:44:36;13.10;42.20
19947;DHT22;10135;50.702;7.276;2023-04-06T16:46:37;13.00;42.30
19947;DHT22;10135;50.702;7.276;2023-04-06T16:48:38;12.90;42.60
19947;DHT22;10135;50.702;7.276;2023-04-06T16:50:39;12.90;42.60
19947;DHT22;10135;50.702;7.276;2023-04-06T16:52:39;12.80;42.70
19947;DHT22;10135;50.702;7.276;2023-04-06T16:54:41;12.80;42.80
19947;DHT22;10135;50.702;7.276;2023-04-06T16:56:41;12.70;43.00
19947;DHT22;10135;50.702;7.276;2023-04-06T16:58:42;12.70;43.20
19947;DHT22;10135;50.702;7.276;2023-04-06T17:00:44;12.60;43.20
19947;DHT22;10135;50.702;7.276;2023-04-06T17:02:46;12.60;43.40
19947;DHT22;10135;50.702;7.276;2023-04-06T17:04:46;12.50;43.50
19947;DHT22;10135;50.702;7.276;2023-04-06T17:06:47;12.40;43.50
19947;DHT22;10135;50.702;7.276;2023-04-06T17:08:48;12.40;43.60
19947;DHT22;10135;50.702;7.276;2023-04-06T17:10:50;12.40;43.70
19947;DHT22;10135;50.702;7.276;2023-04-06T17:12:51;12.30;43.90
19947;DHT22;10135;50.702;7.276;2023-04-06T17:14:51;12.30;43.90
19947;DHT22;10135;50.702;7.276;2023-04-06T17:16:52;12.30;44.10
19947;DHT22;10135;50.702;7.276;2023-04-06T17:18:55;12.20;44.10
19947;DHT22;10135;50.702;7.276;2023-04-06T17:20:57;12.10;44.80
19947;DHT22;10135;50.702;7.276;2023-04-06T17:22:58;12.10;44.40
19947;DHT22;10135;50.702;7.276;2023-04-06T17:24:59;12.10;44.50
19947;DHT22;10135;50.702;7.276;2023-04-06T17:27:01;12.00;44.60
19947;DHT22;10135;50.702;7.276;2023-04-06T17:29:02;12.00;44.60
19947;DHT22;10135;50.702;7.276;2023-04-06T17:31:08;11.90;44.90
19947;DHT22;10135;50.702;7.276;2023-04-06T17:33:10;11.90;45.50
19947;DHT22;10135;50.702;7.276;2023-04-06T17:35:11;11.80;45.00
19947;DHT22;10135;50.702;7.276;2023-04-06T17:37:13;11.80;45.10
19947;DHT22;10135;50.702;7.276;2023-04-06T17:39:14;11.80;45.30
19947;DHT22;10135;50.702;7.276;2023-04-06T17:41:15;11.80;45.40
19947;DHT22;10135;50.702;7.276;2023-04-06T17:43:15;11.70;45.40
19947;DHT22;10135;50.702;7.276;2023-04-06T17:45:17;11.70;45.50
19947;DHT22;10135;50.702;7.276;2023-04-06T17:47:18;11.70;45.60
19947;DHT22;10135;50.702;7.276;2023-04-06T17:49:18;11.60;45.60
19947;DHT22;10135;50.702;7.276;2023-04-06T17:51:19;11.60;45.70
19947;DHT22;10135;50.702;7.276;2023-04-06T17:53:20;11.60;45.80
19947;DHT22;10135;50.702;7.276;2023-04-06T17:55:21;11.50;45.80